createdAt,value
2018-01-06T00:00:38.185Z,8.00
2018-01-06T00:01:38.182Z,8.00
2018-01-06T00:02:38.174Z,8.00
2018-01-06T00:03:38.170Z,8.00
2018-01-06T00:04:38.167Z,8.00
2018-01-06T00:05:38.160Z,8.00
2018-01-06T00:06:38.154Z,8.00
2018-01-06T00:07:38.173Z,8.00
2018-01-06T00:08:38.145Z,8.00
2018-01-06T00:09:38.140Z,8.00
2018-01-06T00:10:38.134Z,8.00
2018-01-06T00:11:38.149Z,8.00
2018-01-06T00:12:38.124Z,4.00
2018-01-06T00:13:38.126Z,8.00
2018-01-06T00:14:38.125Z,8.00
2018-01-06T00:15:38.112Z,8.00
2018-01-06T00:16:38.110Z,8.00
2018-01-06T00:17:38.100Z,8.00
2018-01-06T00:18:38.094Z,8.00
2018-01-06T00:19:38.089Z,8.00
2018-01-06T00:20:38.122Z,8.00
2018-01-06T00:21:38.078Z,8.00
2018-01-06T00:22:38.079Z,8.00
2018-01-06T00:23:38.070Z,8.00
2018-01-06T00:24:38.064Z,8.00
2018-01-06T00:25:38.111Z,8.00
2018-01-06T00:26:38.059Z,8.00
2018-01-06T00:27:38.050Z,8.00
2018-01-06T00:28:38.045Z,8.00
2018-01-06T00:29:38.040Z,8.00
2018-01-06T00:30:38.042Z,8.00
2018-01-06T00:31:38.030Z,8.00
2018-01-06T00:32:38.026Z,8.00
2018-01-06T00:33:38.022Z,8.00
2018-01-06T00:34:38.015Z,8.00
2018-01-06T00:35:38.014Z,8.00
2018-01-06T00:36:38.005Z,8.00
2018-01-06T00:37:38.002Z,8.00
2018-01-06T00:38:37.999Z,8.00
2018-01-06T00:39:37.991Z,8.00
2018-01-06T00:40:37.986Z,8.00
2018-01-06T00:41:37.979Z,8.00
2018-01-06T00:42:37.980Z,8.00
2018-01-06T00:43:37.968Z,8.00
2018-01-06T00:44:37.962Z,8.00
2018-01-06T00:45:37.959Z,8.00
2018-01-06T00:46:37.953Z,4.00
2018-01-06T00:47:37.954Z,8.00
2018-01-06T00:48:37.949Z,8.00
2018-01-06T00:49:37.955Z,8.00
2018-01-06T00:50:37.933Z,8.00
2018-01-06T00:51:37.933Z,8.00
2018-01-06T00:52:37.970Z,8.00
2018-01-06T00:53:37.920Z,8.00
2018-01-06T00:54:37.915Z,8.00
2018-01-06T00:55:37.911Z,8.00
2018-01-06T00:56:37.903Z,8.00
2018-01-06T00:57:37.901Z,8.00
2018-01-06T00:58:37.894Z,8.00
2018-01-06T00:59:37.887Z,8.00
2018-01-06T01:00:37.884Z,8.00
2018-01-06T01:01:37.883Z,8.00
2018-01-06T01:02:37.873Z,8.00
2018-01-06T01:03:37.869Z,4.00
2018-01-06T01:04:37.862Z,8.00
2018-01-06T01:05:37.859Z,8.00
2018-01-06T01:06:37.854Z,4.00
2018-01-06T01:07:37.846Z,8.00
2018-01-06T01:08:37.844Z,8.00
2018-01-06T01:09:37.871Z,8.00
2018-01-06T01:10:37.835Z,8.00
2018-01-06T01:11:37.846Z,8.00
2018-01-06T01:12:37.825Z,8.00
2018-01-06T01:13:37.818Z,8.00
2018-01-06T01:14:37.815Z,8.00
2018-01-06T01:15:37.808Z,8.00
2018-01-06T01:16:37.804Z,8.00
2018-01-06T01:17:37.800Z,4.00
2018-01-06T01:18:37.800Z,8.00
2018-01-06T01:19:37.792Z,4.00
2018-01-06T01:20:37.784Z,8.00
2018-01-06T01:21:37.780Z,8.00
2018-01-06T01:22:37.778Z,8.00
2018-01-06T01:23:37.771Z,8.00
2018-01-06T01:24:37.765Z,8.00
2018-01-06T01:25:37.764Z,4.00
2018-01-06T01:26:37.757Z,8.00
2018-01-06T01:27:37.762Z,8.00
2018-01-06T01:28:37.747Z,8.00
2018-01-06T01:29:37.743Z,8.00
2018-01-06T01:30:37.744Z,8.00
2018-01-06T01:31:37.737Z,8.00
2018-01-06T01:32:37.729Z,8.00
2018-01-06T01:33:37.732Z,8.00
2018-01-06T01:34:37.728Z,8.00
2018-01-06T01:35:37.715Z,4.00
2018-01-06T01:36:37.714Z,8.00
2018-01-06T01:37:37.709Z,8.00
2018-01-06T01:38:37.703Z,8.00
2018-01-06T01:39:37.708Z,8.00
2018-01-06T01:40:37.698Z,8.00
2018-01-06T01:41:37.690Z,8.00
2018-01-06T01:42:37.690Z,4.00
2018-01-06T01:43:37.683Z,4.00
2018-01-06T01:44:37.678Z,8.00
2018-01-06T01:45:37.677Z,8.00
2018-01-06T01:46:37.674Z,4.00
2018-01-06T01:47:37.664Z,8.00
2018-01-06T01:48:37.663Z,4.00
2018-01-06T01:49:37.658Z,4.00
2018-01-06T01:50:37.657Z,8.00
2018-01-06T01:51:37.649Z,4.00
2018-01-06T01:52:37.644Z,8.00
2018-01-06T01:53:37.643Z,8.00
2018-01-06T01:54:37.638Z,4.00
2018-01-06T01:55:37.632Z,8.00
2018-01-06T01:56:37.629Z,8.00
2018-01-06T01:57:37.625Z,8.00
2018-01-06T01:58:37.622Z,8.00
2018-01-06T01:59:37.621Z,4.00
2018-01-06T02:00:37.614Z,8.00
2018-01-06T02:01:37.609Z,8.00
2018-01-06T02:02:37.606Z,8.00
2018-01-06T02:03:37.602Z,8.00
2018-01-06T02:04:37.598Z,4.00
2018-01-06T02:05:37.598Z,8.00
2018-01-06T02:06:37.591Z,8.00
2018-01-06T02:07:37.584Z,8.00
2018-01-06T02:08:37.580Z,8.00
2018-01-06T02:09:37.577Z,4.00
2018-01-06T02:10:37.578Z,8.00
2018-01-06T02:11:37.566Z,8.00
2018-01-06T02:12:37.567Z,8.00
2018-01-06T02:13:37.562Z,8.00
2018-01-06T02:14:37.554Z,8.00
2018-01-06T02:15:37.551Z,8.00
2018-01-06T02:16:37.549Z,8.00
2018-01-06T02:17:37.544Z,4.00
2018-01-06T02:18:37.553Z,8.00
2018-01-06T02:19:37.536Z,8.00
2018-01-06T02:20:37.532Z,8.00
2018-01-06T02:21:37.528Z,8.00
2018-01-06T02:22:37.525Z,8.00
2018-01-06T02:23:37.519Z,4.00
2018-01-06T02:24:37.523Z,8.00
2018-01-06T02:25:37.529Z,4.00
2018-01-06T02:26:37.514Z,8.00
2018-01-06T02:27:37.504Z,8.00
2018-01-06T02:28:37.503Z,4.00
2018-01-06T02:29:37.498Z,8.00
2018-01-06T02:30:37.491Z,8.00
2018-01-06T02:31:37.488Z,8.00
2018-01-06T02:32:37.494Z,8.00
2018-01-06T02:33:37.487Z,8.00
2018-01-06T02:34:37.515Z,8.00
2018-01-06T02:35:37.476Z,8.00
2018-01-06T02:36:37.477Z,8.00
2018-01-06T02:37:37.464Z,4.00
2018-01-06T02:38:37.460Z,8.00
2018-01-06T02:39:37.456Z,4.00
2018-01-06T02:40:37.451Z,8.00
2018-01-06T02:41:37.448Z,8.00
2018-01-06T02:42:37.445Z,4.00
2018-01-06T02:43:37.482Z,8.00
2018-01-06T02:44:37.437Z,8.00
2018-01-06T02:45:37.433Z,8.00
2018-01-06T02:46:37.428Z,8.00
2018-01-06T02:47:37.425Z,8.00
2018-01-06T02:48:37.420Z,8.00
2018-01-06T02:49:37.415Z,8.00
2018-01-06T02:50:37.414Z,4.00
2018-01-06T02:51:37.410Z,4.00
2018-01-06T02:52:37.406Z,4.00
2018-01-06T02:53:37.404Z,8.00
2018-01-06T02:54:37.400Z,8.00
2018-01-06T02:55:37.395Z,4.00
2018-01-06T02:56:37.391Z,8.00
2018-01-06T02:57:37.387Z,4.00
2018-01-06T02:58:37.436Z,8.00
2018-01-06T02:59:37.376Z,8.00
2018-01-06T03:00:37.372Z,4.00
2018-01-06T03:01:37.370Z,8.00
2018-01-06T03:02:37.370Z,8.00
2018-01-06T03:03:37.360Z,8.00
2018-01-06T03:04:37.356Z,8.00
2018-01-06T03:05:37.351Z,8.00
2018-01-06T03:06:37.363Z,8.00
2018-01-06T03:07:37.343Z,4.00
2018-01-06T03:08:37.340Z,4.00
2018-01-06T03:09:37.336Z,4.00
2018-01-06T03:10:37.332Z,8.00
2018-01-06T03:11:37.326Z,4.00
2018-01-06T03:12:37.322Z,4.00
2018-01-06T03:13:37.320Z,8.00
2018-01-06T03:14:37.314Z,4.00
2018-01-06T03:15:37.309Z,8.00
2018-01-06T03:16:37.308Z,4.00
2018-01-06T03:17:37.308Z,4.00
2018-01-06T03:18:37.300Z,8.00
2018-01-06T03:19:37.296Z,8.00
2018-01-06T03:20:37.292Z,8.00
2018-01-06T03:21:37.286Z,4.00
2018-01-06T03:22:37.284Z,8.00
2018-01-06T03:23:37.281Z,8.00
2018-01-06T03:24:37.277Z,4.00
2018-01-06T03:25:37.273Z,4.00
2018-01-06T03:26:37.269Z,8.00
2018-01-06T03:27:37.262Z,4.00
2018-01-06T03:28:37.262Z,8.00
2018-01-06T03:29:37.258Z,4.00
2018-01-06T03:30:37.264Z,8.00
2018-01-06T03:31:37.252Z,4.00
2018-01-06T03:32:37.248Z,4.00
2018-01-06T03:33:37.247Z,8.00
2018-01-06T03:34:37.240Z,4.00
2018-01-06T03:35:37.235Z,4.00
2018-01-06T03:36:37.230Z,4.00
2018-01-06T03:37:37.228Z,4.00
2018-01-06T03:38:37.223Z,4.00
2018-01-06T03:39:37.219Z,4.00
2018-01-06T03:40:37.222Z,4.00
2018-01-06T03:41:37.214Z,4.00
2018-01-06T03:42:37.210Z,4.00
2018-01-06T03:43:37.205Z,4.00
2018-01-06T03:44:37.203Z,4.00
2018-01-06T03:45:37.196Z,4.00
2018-01-06T03:46:37.195Z,4.00
2018-01-06T03:47:37.195Z,4.00
2018-01-06T03:48:37.187Z,4.00
2018-01-06T03:49:37.184Z,4.00
2018-01-06T03:50:37.181Z,4.00
2018-01-06T03:51:37.176Z,4.00
2018-01-06T03:52:37.175Z,4.00
2018-01-06T03:53:37.169Z,4.00
2018-01-06T03:54:37.165Z,4.00
2018-01-06T03:55:37.162Z,4.00
2018-01-06T03:56:37.162Z,4.00
2018-01-06T03:57:37.159Z,4.00
2018-01-06T03:58:37.152Z,4.00
2018-01-06T03:59:37.146Z,4.00
2018-01-06T04:00:37.142Z,4.00
2018-01-06T04:01:37.146Z,4.00
2018-01-06T04:02:37.140Z,4.00
2018-01-06T04:03:37.132Z,4.00
2018-01-06T04:04:37.131Z,4.00
2018-01-06T04:05:37.127Z,4.00
2018-01-06T04:06:37.124Z,4.00
2018-01-06T04:07:37.118Z,4.00
2018-01-06T04:08:37.118Z,4.00
2018-01-06T04:09:37.118Z,4.00
2018-01-06T04:10:37.110Z,4.00
2018-01-06T04:11:37.105Z,4.00
2018-01-06T04:12:37.104Z,4.00
2018-01-06T04:13:37.100Z,4.00
2018-01-06T04:14:37.097Z,4.00
2018-01-06T04:15:37.093Z,4.00
2018-01-06T04:16:37.089Z,4.00
2018-01-06T04:17:37.084Z,4.00
2018-01-06T04:18:37.081Z,4.00
2018-01-06T04:19:37.080Z,4.00
2018-01-06T04:20:37.075Z,4.00
2018-01-06T04:21:37.073Z,4.00
2018-01-06T04:22:37.069Z,4.00
2018-01-06T04:23:37.062Z,4.00
2018-01-06T04:24:37.061Z,4.00
2018-01-06T04:25:37.055Z,4.00
2018-01-06T04:26:37.060Z,4.00
2018-01-06T04:27:37.054Z,4.00
2018-01-06T04:28:37.049Z,4.00
2018-01-06T04:29:37.041Z,4.00
2018-01-06T04:30:37.037Z,4.00
2018-01-06T04:31:37.041Z,4.00
2018-01-06T04:32:37.036Z,4.00
2018-01-06T04:33:37.026Z,4.00
2018-01-06T04:34:37.024Z,4.00
2018-01-06T04:35:37.019Z,4.00
2018-01-06T04:36:37.020Z,4.00
2018-01-06T04:37:37.010Z,4.00
2018-01-06T04:38:37.007Z,4.00
2018-01-06T04:39:37.002Z,4.00
2018-01-06T04:40:36.999Z,4.00
2018-01-06T04:41:36.995Z,4.00
2018-01-06T04:42:36.994Z,4.00
2018-01-06T04:43:36.991Z,4.00
2018-01-06T04:44:36.983Z,4.00
2018-01-06T04:45:36.979Z,4.00
2018-01-06T04:46:36.979Z,4.00
2018-01-06T04:47:36.971Z,4.00
2018-01-06T04:48:36.971Z,4.00
2018-01-06T04:49:36.967Z,4.00
2018-01-06T04:50:36.963Z,4.00
2018-01-06T04:51:36.956Z,4.00
2018-01-06T04:52:36.955Z,4.00
2018-01-06T04:53:36.949Z,4.00
2018-01-06T04:54:36.947Z,4.00
2018-01-06T04:55:36.942Z,8.00
2018-01-06T04:56:36.936Z,8.00
2018-01-06T04:57:36.936Z,4.00
2018-01-06T04:58:36.930Z,4.00
2018-01-06T04:59:36.929Z,4.00
2018-01-06T05:00:36.924Z,4.00
2018-01-06T05:01:36.918Z,4.00
2018-01-06T05:02:36.915Z,4.00
2018-01-06T05:03:36.913Z,4.00
2018-01-06T05:04:36.906Z,4.00
2018-01-06T05:05:37.590Z,4.00
2018-01-06T05:06:37.066Z,4.00
2018-01-06T05:07:36.898Z,4.00
2018-01-06T05:08:36.894Z,4.00
2018-01-06T05:09:36.890Z,4.00
2018-01-06T05:10:36.889Z,4.00
2018-01-06T05:11:36.882Z,4.00
2018-01-06T05:12:36.877Z,4.00
2018-01-06T05:13:36.873Z,4.00
2018-01-06T05:14:36.871Z,4.00
2018-01-06T05:15:36.867Z,4.00
2018-01-06T05:16:36.863Z,4.00
2018-01-06T05:17:36.868Z,4.00
2018-01-06T05:18:36.856Z,4.00
2018-01-06T05:19:36.852Z,4.00
2018-01-06T05:20:36.848Z,4.00
2018-01-06T05:21:36.845Z,4.00
2018-01-06T05:22:36.843Z,8.00
2018-01-06T05:23:36.846Z,8.00
2018-01-06T05:24:36.834Z,4.00
2018-01-06T05:25:36.834Z,4.00
2018-01-06T05:26:36.829Z,4.00
2018-01-06T05:27:36.823Z,4.00
2018-01-06T05:28:36.819Z,4.00
2018-01-06T05:29:36.819Z,4.00
2018-01-06T05:30:36.812Z,4.00
2018-01-06T05:31:36.807Z,4.00
2018-01-06T05:32:36.805Z,4.00
2018-01-06T05:33:36.803Z,4.00
2018-01-06T05:34:36.797Z,4.00
2018-01-06T05:35:36.793Z,4.00
2018-01-06T05:36:36.790Z,4.00
2018-01-06T05:37:36.786Z,4.00
2018-01-06T05:38:36.783Z,4.00
2018-01-06T05:39:36.779Z,4.00
2018-01-06T05:40:36.776Z,4.00
2018-01-06T05:41:36.772Z,4.00
2018-01-06T05:42:36.769Z,4.00
2018-01-06T05:43:36.763Z,4.00
2018-01-06T05:44:36.759Z,4.00
2018-01-06T05:45:36.758Z,4.00
2018-01-06T05:46:36.753Z,4.00
2018-01-06T05:47:36.748Z,4.00
2018-01-06T05:48:36.746Z,4.00
2018-01-06T05:49:36.741Z,4.00
2018-01-06T05:50:36.739Z,4.00
2018-01-06T05:51:36.735Z,4.00
2018-01-06T05:52:36.730Z,4.00
2018-01-06T05:53:36.728Z,4.00
2018-01-06T05:54:36.727Z,4.00
2018-01-06T05:55:36.719Z,4.00
2018-01-06T05:56:36.717Z,4.00
2018-01-06T05:57:36.713Z,4.00
2018-01-06T05:58:36.708Z,4.00
2018-01-06T05:59:36.705Z,4.00
2018-01-06T06:00:36.747Z,4.00
2018-01-06T06:01:36.709Z,8.00
2018-01-06T06:02:36.697Z,4.00
2018-01-06T06:03:36.690Z,4.00
2018-01-06T06:04:36.687Z,4.00
2018-01-06T06:05:36.681Z,4.00
2018-01-06T06:06:36.679Z,4.00
2018-01-06T06:07:36.676Z,4.00
2018-01-06T06:08:36.673Z,4.00
2018-01-06T06:09:36.671Z,4.00
2018-01-06T06:10:36.667Z,4.00
2018-01-06T06:11:36.659Z,4.00
2018-01-06T06:12:36.655Z,4.00
2018-01-06T06:13:36.652Z,4.00
2018-01-06T06:14:36.649Z,4.00
2018-01-06T06:15:36.645Z,4.00
2018-01-06T06:16:36.640Z,4.00
2018-01-06T06:17:36.736Z,4.00
2018-01-06T06:18:36.632Z,4.00
2018-01-06T06:19:36.628Z,4.00
2018-01-06T06:20:36.630Z,4.00
2018-01-06T06:21:36.623Z,4.00
2018-01-06T06:22:36.618Z,4.00
2018-01-06T06:23:36.613Z,4.00
2018-01-06T06:24:36.609Z,4.00
2018-01-06T06:25:36.604Z,4.00
2018-01-06T06:26:36.600Z,4.00
2018-01-06T06:27:36.598Z,4.00
2018-01-06T06:28:36.593Z,8.00
2018-01-06T06:29:36.590Z,4.00
2018-01-06T06:30:36.586Z,4.00
2018-01-06T06:31:36.613Z,4.00
2018-01-06T06:32:36.578Z,8.00
2018-01-06T06:33:36.571Z,8.00
2018-01-06T06:34:36.570Z,8.00
2018-01-06T06:35:36.566Z,8.00
2018-01-06T06:36:36.558Z,8.00
2018-01-06T06:37:36.557Z,8.00
2018-01-06T06:38:36.551Z,8.00
2018-01-06T06:39:36.549Z,8.00
2018-01-06T06:40:36.545Z,8.00
2018-01-06T06:41:36.564Z,8.00
2018-01-06T06:42:36.534Z,8.00
2018-01-06T06:43:36.534Z,8.00
2018-01-06T06:44:36.525Z,4.00
2018-01-06T06:45:36.523Z,4.00
2018-01-06T06:46:36.516Z,8.00
2018-01-06T06:47:36.518Z,8.00
2018-01-06T06:48:36.518Z,8.00
2018-01-06T06:49:36.504Z,8.00
2018-01-06T06:50:36.500Z,8.00
2018-01-06T06:51:36.495Z,8.00
2018-01-06T06:52:36.491Z,12.00
2018-01-06T06:53:36.487Z,8.00
2018-01-06T06:54:36.539Z,12.00
2018-01-06T06:55:36.478Z,8.00
2018-01-06T06:56:36.475Z,8.00
2018-01-06T06:57:36.471Z,8.00
2018-01-06T06:58:36.469Z,8.00
2018-01-06T06:59:36.464Z,12.00
2018-01-06T07:00:36.460Z,8.00
2018-01-06T07:01:36.454Z,12.00
2018-01-06T07:02:36.449Z,12.00
2018-01-06T07:03:36.444Z,16.00
2018-01-06T07:04:36.441Z,16.00
2018-01-06T07:05:36.439Z,20.00
2018-01-06T07:06:36.433Z,20.00
2018-01-06T07:07:36.431Z,20.00
2018-01-06T07:08:36.424Z,20.00
2018-01-06T07:09:36.423Z,24.00
2018-01-06T07:10:36.418Z,28.00
2018-01-06T07:11:36.416Z,28.00
2018-01-06T07:12:36.408Z,32.00
2018-01-06T07:13:36.405Z,40.00
2018-01-06T07:14:36.401Z,44.00
2018-01-06T07:15:36.396Z,48.00
2018-01-06T07:16:36.394Z,56.00
2018-01-06T07:17:36.390Z,64.00
2018-01-06T07:18:36.387Z,68.00
2018-01-06T07:19:36.384Z,76.00
2018-01-06T07:20:36.375Z,80.00
2018-01-06T07:21:36.371Z,84.00
2018-01-06T07:22:36.367Z,88.00
2018-01-06T07:23:36.361Z,96.00
2018-01-06T07:24:36.360Z,96.00
2018-01-06T07:25:36.356Z,104.00
2018-01-06T07:26:36.351Z,108.00
2018-01-06T07:27:36.349Z,112.00
2018-01-06T07:28:36.343Z,120.00
2018-01-06T07:29:36.336Z,136.00
2018-01-06T07:30:36.335Z,144.00
2018-01-06T07:31:36.329Z,160.00
2018-01-06T07:32:36.326Z,168.00
2018-01-06T07:33:36.318Z,188.00
2018-01-06T07:34:36.314Z,196.00
2018-01-06T07:35:36.309Z,204.00
2018-01-06T07:36:36.306Z,212.00
2018-01-06T07:37:36.302Z,228.00
2018-01-06T07:38:36.299Z,244.00
2018-01-06T07:39:36.294Z,248.00
2018-01-06T07:40:36.289Z,252.00
2018-01-06T07:41:36.284Z,260.00
2018-01-06T07:42:36.281Z,256.00
2018-01-06T07:43:36.275Z,260.00
2018-01-06T07:44:36.273Z,260.00
2018-01-06T07:45:36.269Z,264.00
2018-01-06T07:46:36.264Z,272.00
2018-01-06T07:47:36.257Z,276.00
2018-01-06T07:48:36.253Z,284.00
2018-01-06T07:49:36.251Z,296.00
2018-01-06T07:50:36.245Z,304.00
2018-01-06T07:51:36.242Z,316.00
2018-01-06T07:52:36.236Z,320.00
2018-01-06T07:53:36.232Z,332.00
2018-01-06T07:54:36.228Z,336.00
2018-01-06T07:55:36.223Z,348.00
2018-01-06T07:56:36.219Z,356.00
2018-01-06T07:57:36.218Z,376.00
2018-01-06T07:58:36.212Z,396.00
2018-01-06T07:59:36.205Z,400.00
2018-01-06T08:00:36.203Z,404.00
2018-01-06T08:01:36.197Z,404.00
2018-01-06T08:02:36.198Z,400.00
2018-01-06T08:03:36.189Z,392.00
2018-01-06T08:04:36.186Z,376.00
2018-01-06T08:05:36.180Z,356.00
2018-01-06T08:06:36.177Z,348.00
2018-01-06T08:07:36.173Z,336.00
2018-01-06T08:08:36.166Z,336.00
2018-01-06T08:09:36.162Z,340.00
2018-01-06T08:10:36.160Z,340.00
2018-01-06T08:11:36.156Z,340.00
2018-01-06T08:12:36.152Z,356.00
2018-01-06T08:13:36.145Z,368.00
2018-01-06T08:14:36.143Z,392.00
2018-01-06T08:15:36.135Z,412.00
2018-01-06T08:16:36.133Z,408.00
2018-01-06T08:17:36.128Z,428.00
2018-01-06T08:18:36.122Z,452.00
2018-01-06T08:19:36.120Z,464.00
2018-01-06T08:20:36.113Z,484.00
2018-01-06T08:21:36.108Z,500.00
2018-01-06T08:22:36.104Z,512.00
2018-01-06T08:23:36.101Z,528.00
2018-01-06T08:24:36.094Z,548.00
2018-01-06T08:25:36.090Z,556.00
2018-01-06T08:26:36.087Z,552.00
2018-01-06T08:27:36.082Z,556.00
2018-01-06T08:28:36.078Z,560.00
2018-01-06T08:29:36.075Z,552.00
2018-01-06T08:30:36.071Z,548.00
2018-01-06T08:31:36.063Z,552.00
2018-01-06T08:32:36.060Z,588.00
2018-01-06T08:33:36.058Z,628.00
2018-01-06T08:34:36.051Z,604.00
2018-01-06T08:35:36.047Z,604.00
2018-01-06T08:36:36.043Z,672.00
2018-01-06T08:37:36.041Z,584.00
2018-01-06T08:38:36.041Z,532.00
2018-01-06T08:39:36.030Z,496.00
2018-01-06T08:40:36.026Z,484.00
2018-01-06T08:41:36.025Z,484.00
2018-01-06T08:42:36.019Z,536.00
2018-01-06T08:43:36.012Z,668.00
2018-01-06T08:44:36.011Z,736.00
2018-01-06T08:45:36.012Z,740.00
2018-01-06T08:46:36.002Z,752.00
2018-01-06T08:47:35.996Z,756.00
2018-01-06T08:48:35.990Z,760.00
2018-01-06T08:49:35.986Z,752.00
2018-01-06T08:50:35.983Z,688.00
2018-01-06T08:51:35.983Z,692.00
2018-01-06T08:52:35.973Z,700.00
2018-01-06T08:53:35.971Z,656.00
2018-01-06T08:54:35.966Z,620.00
2018-01-06T08:55:35.961Z,616.00
2018-01-06T08:56:35.963Z,664.00
2018-01-06T08:57:35.953Z,636.00
2018-01-06T08:58:35.949Z,700.00
2018-01-06T08:59:35.945Z,872.00
2018-01-06T09:00:35.941Z,1032.00
2018-01-06T09:01:35.934Z,1068.00
2018-01-06T09:02:35.944Z,1096.00
2018-01-06T09:03:35.926Z,1116.00
2018-01-06T09:04:35.928Z,1096.00
2018-01-06T09:05:35.919Z,1056.00
2018-01-06T09:06:35.914Z,932.00
2018-01-06T09:07:35.907Z,840.00
2018-01-06T09:08:35.903Z,800.00
2018-01-06T09:09:35.900Z,768.00
2018-01-06T09:10:35.903Z,788.00
2018-01-06T09:11:35.890Z,804.00
2018-01-06T09:12:35.897Z,808.00
2018-01-06T09:13:35.887Z,844.00
2018-01-06T09:14:35.887Z,868.00
2018-01-06T09:15:35.888Z,876.00
2018-01-06T09:16:35.869Z,924.00
2018-01-06T09:17:35.866Z,1024.00
2018-01-06T09:18:35.863Z,1048.00
2018-01-06T09:19:35.856Z,1120.00
2018-01-06T09:20:35.866Z,1036.00
2018-01-06T09:21:35.849Z,988.00
2018-01-06T09:22:35.845Z,1064.00
2018-01-06T09:23:35.843Z,976.00
2018-01-06T09:24:35.836Z,956.00
2018-01-06T09:25:35.835Z,1028.00
2018-01-06T09:26:35.835Z,1124.00
2018-01-06T09:27:35.824Z,1112.00
2018-01-06T09:28:35.860Z,1172.00
2018-01-06T09:29:35.819Z,1128.00
2018-01-06T09:30:35.814Z,1112.00
2018-01-06T09:31:35.819Z,980.00
2018-01-06T09:32:35.816Z,816.00
2018-01-06T09:33:35.800Z,768.00
2018-01-06T09:34:35.799Z,764.00
2018-01-06T09:35:35.791Z,828.00
2018-01-06T09:36:35.788Z,836.00
2018-01-06T09:37:35.788Z,892.00
2018-01-06T09:38:35.798Z,964.00
2018-01-06T09:39:35.778Z,996.00
2018-01-06T09:40:35.775Z,1008.00
2018-01-06T09:41:35.775Z,1052.00
2018-01-06T09:42:35.766Z,1088.00
2018-01-06T09:43:35.761Z,1152.00
2018-01-06T09:44:35.757Z,1220.00
2018-01-06T09:45:35.755Z,1192.00
2018-01-06T09:46:35.750Z,1248.00
2018-01-06T09:47:35.748Z,1104.00
2018-01-06T09:48:35.744Z,984.00
2018-01-06T09:49:35.745Z,956.00
2018-01-06T09:50:35.738Z,984.00
2018-01-06T09:51:35.732Z,1008.00
2018-01-06T09:52:35.736Z,996.00
2018-01-06T09:53:35.725Z,972.00
2018-01-06T09:54:35.721Z,964.00
2018-01-06T09:55:35.718Z,976.00
2018-01-06T09:56:35.714Z,988.00
2018-01-06T09:57:35.715Z,984.00
2018-01-06T09:58:35.708Z,980.00
2018-01-06T09:59:35.704Z,968.00
2018-01-06T10:00:35.701Z,964.00
2018-01-06T10:01:35.701Z,976.00
2018-01-06T10:02:35.695Z,988.00
2018-01-06T10:03:35.689Z,1036.00
2018-01-06T10:04:35.793Z,1076.00
2018-01-06T10:05:35.682Z,1104.00
2018-01-06T10:06:35.686Z,1088.00
2018-01-06T10:07:35.721Z,1128.00
2018-01-06T10:08:35.671Z,1136.00
2018-01-06T10:09:35.676Z,1128.00
2018-01-06T10:10:35.672Z,1096.00
2018-01-06T10:11:35.661Z,1116.00
2018-01-06T10:12:35.658Z,1160.00
2018-01-06T10:13:35.653Z,1172.00
2018-01-06T10:14:35.650Z,1188.00
2018-01-06T10:15:35.664Z,1188.00
2018-01-06T10:16:35.643Z,1184.00
2018-01-06T10:17:35.640Z,1140.00
2018-01-06T10:18:35.640Z,1124.00
2018-01-06T10:19:35.637Z,1124.00
2018-01-06T10:20:35.630Z,1176.00
2018-01-06T10:21:35.626Z,1228.00
2018-01-06T10:22:35.624Z,1256.00
2018-01-06T10:23:35.617Z,1264.00
2018-01-06T10:24:35.614Z,1248.00
2018-01-06T10:25:35.612Z,1132.00
2018-01-06T10:26:35.612Z,1068.00
2018-01-06T10:27:35.604Z,980.00
2018-01-06T10:28:35.600Z,928.00
2018-01-06T10:29:35.598Z,912.00
2018-01-06T10:30:35.596Z,904.00
2018-01-06T10:31:35.589Z,904.00
2018-01-06T10:32:35.589Z,908.00
2018-01-06T10:33:35.583Z,980.00
2018-01-06T10:34:35.579Z,1156.00
2018-01-06T10:35:35.819Z,1324.00
2018-01-06T10:36:35.579Z,1444.00
2018-01-06T10:37:35.677Z,1660.00
2018-01-06T10:38:35.566Z,1848.00
2018-01-06T10:39:35.561Z,1956.00
2018-01-06T10:40:35.560Z,2044.00
2018-01-06T10:41:35.561Z,2084.00
2018-01-06T10:42:35.627Z,2040.00
2018-01-06T10:43:35.551Z,1928.00
2018-01-06T10:44:35.545Z,1740.00
2018-01-06T10:45:35.543Z,1536.00
2018-01-06T10:46:35.541Z,1456.00
2018-01-06T10:47:35.537Z,1440.00
2018-01-06T10:48:35.535Z,1444.00
2018-01-06T10:49:35.535Z,1360.00
2018-01-06T10:50:35.527Z,1268.00
2018-01-06T10:51:35.524Z,1208.00
2018-01-06T10:52:35.521Z,1172.00
2018-01-06T10:53:35.516Z,1148.00
2018-01-06T10:54:35.514Z,1080.00
2018-01-06T10:55:35.515Z,1036.00
2018-01-06T10:56:35.508Z,992.00
2018-01-06T10:57:35.506Z,972.00
2018-01-06T10:58:35.519Z,968.00
2018-01-06T10:59:35.498Z,952.00
2018-01-06T11:00:35.495Z,952.00
2018-01-06T11:01:35.492Z,964.00
2018-01-06T11:02:35.492Z,984.00
2018-01-06T11:03:35.485Z,980.00
2018-01-06T11:04:35.483Z,984.00
2018-01-06T11:05:35.582Z,968.00
2018-01-06T11:06:35.486Z,932.00
2018-01-06T11:07:35.478Z,936.00
2018-01-06T11:08:35.472Z,960.00
2018-01-06T11:09:35.468Z,1032.00
2018-01-06T11:10:35.464Z,1064.00
2018-01-06T11:11:35.470Z,1080.00
2018-01-06T11:12:35.461Z,1092.00
2018-01-06T11:13:35.457Z,1104.00
2018-01-06T11:14:35.454Z,1144.00
2018-01-06T11:15:35.448Z,1196.00
2018-01-06T11:16:35.451Z,1296.00
2018-01-06T11:17:35.443Z,1348.00
2018-01-06T11:18:35.440Z,1312.00
2018-01-06T11:19:35.438Z,1264.00
2018-01-06T11:20:35.436Z,1260.00
2018-01-06T11:21:36.546Z,1344.00
2018-01-06T11:22:36.528Z,1384.00
2018-01-06T11:23:35.522Z,1416.00
2018-01-06T11:24:35.852Z,1420.00
2018-01-06T11:25:38.109Z,1420.00
2018-01-06T11:26:37.062Z,1404.00
2018-01-06T11:27:35.414Z,1388.00
2018-01-06T11:28:35.411Z,1472.00
2018-01-06T11:29:35.410Z,1440.00
2018-01-06T11:30:35.407Z,1340.00
2018-01-06T11:31:35.407Z,1392.00
2018-01-06T11:32:35.403Z,1452.00
2018-01-06T11:33:35.398Z,1356.00
2018-01-06T11:34:35.397Z,1252.00
2018-01-06T11:35:35.394Z,1128.00
2018-01-06T11:36:35.391Z,1004.00
2018-01-06T11:37:35.394Z,924.00
2018-01-06T11:38:35.388Z,872.00
2018-01-06T11:39:35.382Z,832.00
2018-01-06T11:40:35.380Z,824.00
2018-01-06T11:41:35.377Z,832.00
2018-01-06T11:42:35.376Z,840.00
2018-01-06T11:43:35.372Z,824.00
2018-01-06T11:44:35.385Z,836.00
2018-01-06T11:45:35.370Z,856.00
2018-01-06T11:46:35.365Z,868.00
2018-01-06T11:47:35.360Z,884.00
2018-01-06T11:48:35.362Z,908.00
2018-01-06T11:49:35.359Z,940.00
2018-01-06T11:50:35.358Z,960.00
2018-01-06T11:51:35.352Z,980.00
2018-01-06T11:52:35.347Z,1008.00
2018-01-06T11:53:35.348Z,1016.00
2018-01-06T11:54:35.345Z,1036.00
2018-01-06T11:55:35.352Z,1052.00
2018-01-06T11:56:35.338Z,1044.00
2018-01-06T11:57:35.344Z,1020.00
2018-01-06T11:58:35.337Z,992.00
2018-01-06T11:59:35.358Z,960.00
2018-01-06T12:00:35.337Z,932.00
2018-01-06T12:01:35.338Z,880.00
2018-01-06T12:02:35.330Z,828.00
2018-01-06T12:03:35.321Z,792.00
2018-01-06T12:04:35.333Z,764.00
2018-01-06T12:05:35.317Z,744.00
2018-01-06T12:06:35.318Z,732.00
2018-01-06T12:07:35.312Z,736.00
2018-01-06T12:08:35.314Z,752.00
2018-01-06T12:09:35.309Z,756.00
2018-01-06T12:10:35.309Z,756.00
2018-01-06T12:11:35.306Z,768.00
2018-01-06T12:12:35.300Z,780.00
2018-01-06T12:13:35.298Z,792.00
2018-01-06T12:14:35.296Z,788.00
2018-01-06T12:15:35.293Z,804.00
2018-01-06T12:16:35.292Z,816.00
2018-01-06T12:17:35.289Z,816.00
2018-01-06T12:18:35.286Z,820.00
2018-01-06T12:19:35.286Z,820.00
2018-01-06T12:20:35.282Z,848.00
2018-01-06T12:21:35.282Z,884.00
2018-01-06T12:22:35.278Z,936.00
2018-01-06T12:23:35.273Z,996.00
2018-01-06T12:24:35.278Z,1028.00
2018-01-06T12:25:35.272Z,1028.00
2018-01-06T12:26:35.272Z,1040.00
2018-01-06T12:27:35.264Z,1068.00
2018-01-06T12:28:35.270Z,1108.00
2018-01-06T12:29:35.261Z,1152.00
2018-01-06T12:30:35.260Z,1164.00
2018-01-06T12:31:35.258Z,1168.00
2018-01-06T12:32:35.254Z,1180.00
2018-01-06T12:33:35.258Z,1196.00
2018-01-06T12:34:35.250Z,1224.00
2018-01-06T12:35:35.251Z,1252.00
2018-01-06T12:36:35.245Z,1264.00
2018-01-06T12:37:35.307Z,1276.00
2018-01-06T12:38:35.242Z,1288.00
2018-01-06T12:39:35.240Z,1276.00
2018-01-06T12:40:35.237Z,1244.00
2018-01-06T12:41:35.234Z,1216.00
2018-01-06T12:42:35.233Z,1204.00
2018-01-06T12:43:35.230Z,1208.00
2018-01-06T12:44:35.226Z,1192.00
2018-01-06T12:45:35.228Z,1180.00
2018-01-06T12:46:35.225Z,1168.00
2018-01-06T12:47:35.221Z,1132.00
2018-01-06T12:48:35.230Z,1036.00
2018-01-06T12:49:35.216Z,956.00
2018-01-06T12:50:35.216Z,884.00
2018-01-06T12:51:35.214Z,844.00